Time;durP1;ratioP1;P1;durP2;ratioP2;P2;SDS_P1;SDS_P2;PMS_P1;PMS_P2;Temp;Humidity;BMP_temperature;BMP_pressure;BME280_temperature;BME280_humidity;BME280_pressure;Samples;Min_cycle;Max_cycle;Signal;HPM_P1;HPM_P2
2024/04/16 00:01:37;;;;;;;7.05;0.95;;;17.70;66.50;;;;;;5501493;26;20002;-61
2024/04/16 00:04:03;;;;;;;6.75;1.40;;;17.60;66.60;;;;;;5499649;26;19997;-61
2024/04/16 00:06:28;;;;;;;5.43;1.10;;;17.60;66.90;;;;;;5499714;26;19998;-60
2024/04/16 00:08:54;;;;;;;4.93;0.98;;;17.60;67.10;;;;;;5499644;26;20375;-61
2024/04/16 00:11:20;;;;;;;5.53;0.95;;;17.50;67.00;;;;;;5501416;26;19994;-61
2024/04/16 00:13:46;;;;;;;7.38;0.90;;;17.50;67.20;;;;;;5501486;26;19991;-60
2024/04/16 00:16:11;;;;;;;1.70;0.57;;;17.40;67.30;;;;;;5499472;26;20005;-61
2024/04/16 00:18:37;;;;;;;2.70;0.65;;;17.40;67.30;;;;;;5499534;26;19990;-61
2024/04/16 00:21:03;;;;;;;3.95;0.80;;;17.40;67.30;;;;;;5501397;26;19994;-61
2024/04/16 00:23:28;;;;;;;4.20;0.70;;;17.40;67.40;;;;;;5501136;26;20121;-61
2024/04/16 00:25:54;;;;;;;7.35;0.85;;;17.30;67.50;;;;;;5501332;26;20445;-60
2024/04/16 00:28:20;;;;;;;7.35;0.80;;;17.30;67.60;;;;;;5468621;26;20449;-61
2024/04/16 00:30:46;;;;;;;1.30;0.40;;;17.30;67.70;;;;;;5468825;26;20009;-60
2024/04/16 00:33:11;;;;;;;1.02;0.57;;;17.20;67.70;;;;;;5499105;26;20088;-61
2024/04/16 00:35:37;;;;;;;2.03;0.68;;;17.20;67.80;;;;;;5500899;26;19994;-61
2024/04/16 00:38:03;;;;;;;8.32;1.00;;;17.10;67.80;;;;;;5499095;26;19998;-61
2024/04/16 00:40:28;;;;;;;1.10;0.43;;;17.10;68.00;;;;;;5498983;26;20106;-61
2024/04/16 00:42:54;;;;;;;2.78;0.40;;;17.00;68.00;;;;;;5498775;26;19998;-61
2024/04/16 00:45:20;;;;;;;3.35;0.65;;;17.00;68.10;;;;;;5498953;26;19990;-61
2024/04/16 00:47:46;;;;;;;2.25;0.57;;;16.90;68.20;;;;;;5500945;26;19998;-61
2024/04/16 00:50:12;;;;;;;6.97;0.60;;;16.80;68.40;;;;;;5500768;26;20477;-61
2024/04/16 00:52:38;;;;;;;2.33;0.43;;;16.80;68.60;;;;;;5468371;26;20423;-61
2024/04/16 00:55:05;;;;;;;1.90;0.57;;;16.70;68.60;;;;;;5498928;26;19998;-60
2024/04/16 00:57:31;;;;;;;0.85;0.30;;;16.70;68.80;;;;;;5498941;26;20076;-60
2024/04/16 00:59:58;;;;;;;2.53;0.47;;;16.70;69.00;;;;;;5498756;26;20009;-60
2024/04/16 01:02:23;;;;;;;0.93;0.32;;;16.60;69.10;;;;;;5498828;26;19998;-61
2024/04/16 01:04:49;;;;;;;2.80;0.32;;;16.60;69.10;;;;;;5498644;26;20017;-60
2024/04/16 01:07:15;;;;;;;1.75;0.60;;;16.60;69.30;;;;;;5500659;26;20199;-61
2024/04/16 01:09:41;;;;;;;1.85;0.30;;;16.50;69.40;;;;;;5498754;26;20054;-60
2024/04/16 01:12:06;;;;;;;1.40;0.40;;;16.50;69.60;;;;;;5498568;26;20006;-60
2024/04/16 01:14:32;;;;;;;1.00;0.30;;;16.50;69.60;;;;;;5498635;26;20442;-61
2024/04/16 01:16:57;;;;;;;0.55;0.20;;;16.40;69.80;;;;;;5498577;26;20002;-61
2024/04/16 01:19:23;;;;;;;2.15;0.45;;;16.40;70.00;;;;;;5498624;26;20469;-61
2024/04/16 01:21:49;;;;;;;2.72;0.22;;;16.30;70.10;;;;;;5500526;26;20080;-61
2024/04/16 01:24:16;;;;;;;1.77;0.40;;;16.20;70.20;;;;;;5500426;26;20044;-60
2024/04/16 01:26:41;;;;;;;2.55;0.10;;;16.20;70.40;;;;;;5498529;26;20088;-61
2024/04/16 01:29:07;;;;;;;0.73;0.32;;;16.20;70.70;;;;;;5500459;26;20347;-61
2024/04/16 01:31:33;;;;;;;1.17;0.40;;;16.10;70.90;;;;;;5500348;26;20006;-61
2024/04/16 01:33:59;;;;;;;0.90;0.30;;;16.10;71.00;;;;;;5498479;26;19998;-61
2024/04/16 01:36:25;;;;;;;1.75;0.32;;;16.00;71.00;;;;;;5500268;26;20026;-61
2024/04/16 01:38:51;;;;;;;0.45;0.20;;;16.00;71.10;;;;;;5468266;26;20012;-61
2024/04/16 01:41:17;;;;;;;1.52;0.30;;;16.00;71.20;;;;;;5500299;26;20010;-61
2024/04/16 01:43:42;;;;;;;0.50;0.20;;;15.90;71.20;;;;;;5500023;26;19998;-61
2024/04/16 01:46:09;;;;;;;5.82;0.50;;;15.90;71.20;;;;;;5467632;26;19998;-61
2024/04/16 01:48:34;;;;;;;2.95;0.32;;;15.80;71.50;;;;;;5498410;26;20002;-61
2024/04/16 01:51:00;;;;;;;2.20;0.45;;;15.80;71.70;;;;;;5467473;26;20051;-61
2024/04/16 01:53:26;;;;;;;0.13;0.10;;;15.70;71.80;;;;;;5496828;26;20055;-61
2024/04/16 01:55:51;;;;;;;2.60;0.40;;;15.70;71.90;;;;;;5498182;26;19994;-61
2024/04/16 01:58:17;;;;;;;3.40;0.20;;;15.70;72.00;;;;;;5498134;26;20002;-61
2024/04/16 02:00:43;;;;;;;2.30;0.60;;;15.60;72.10;;;;;;5498060;26;19997;-61
2024/04/16 02:03:08;;;;;;;0.88;0.30;;;15.60;72.30;;;;;;5499905;26;20278;-60
2024/04/16 02:05:37;;;;;;;0.52;0.30;;;15.50;72.20;;;;;;5499955;26;19990;-61
2024/04/16 02:08:03;;;;;;;2.55;0.40;;;15.50;72.50;;;;;;5498012;26;20002;-61
2024/04/16 02:10:28;;;;;;;0.50;0.10;;;15.40;72.40;;;;;;5499589;26;19994;-61
2024/04/16 02:12:54;;;;;;;0.80;0.30;;;15.40;72.60;;;;;;5499656;26;19998;-61
2024/04/16 02:15:20;;;;;;;0.75;0.30;;;15.30;72.80;;;;;;5499607;26;20321;-61
2024/04/16 02:17:45;;;;;;;1.45;0.47;;;15.30;72.80;;;;;;5467208;26;20013;-61
2024/04/16 02:20:11;;;;;;;1.08;0.40;;;15.30;72.90;;;;;;5497738;26;20005;-61
2024/04/16 02:22:37;;;;;;;0.98;0.40;;;15.20;72.90;;;;;;5497667;26;19998;-61
2024/04/16 02:25:03;;;;;;;1.20;0.50;;;15.20;73.00;;;;;;5497596;26;19994;-61
2024/04/16 02:27:28;;;;;;;1.30;0.40;;;15.20;73.10;;;;;;5497739;26;20006;-61
2024/04/16 02:29:54;;;;;;;1.50;0.32;;;15.10;73.20;;;;;;5497549;26;20036;-61
2024/04/16 02:32:19;;;;;;;0.43;0.20;;;15.00;73.30;;;;;;5497473;26;19994;-61
2024/04/16 02:34:45;;;;;;;0.40;0.20;;;15.00;73.40;;;;;;5499372;26;20098;-61
2024/04/16 02:37:11;;;;;;;1.45;0.55;;;15.00;73.40;;;;;;5499297;26;20005;-61
2024/04/16 02:39:37;;;;;;;4.43;0.40;;;14.90;73.40;;;;;;5497373;26;20018;-61
2024/04/16 02:42:03;;;;;;;1.75;0.30;;;14.90;73.40;;;;;;5497553;26;20002;-61
2024/04/16 02:44:28;;;;;;;0.73;0.30;;;14.90;73.50;;;;;;5497027;26;20042;-61
2024/04/16 02:46:54;;;;;;;5.18;0.70;;;14.80;73.50;;;;;;5499419;26;20048;-61
2024/04/16 02:49:19;;;;;;;1.20;0.40;;;14.80;73.50;;;;;;5497045;26;20002;-61
2024/04/16 02:51:45;;;;;;;0.40;0.30;;;14.80;73.60;;;;;;5497164;26;20002;-61
2024/04/16 02:54:11;;;;;;;1.00;0.40;;;14.70;73.60;;;;;;5497094;26;19998;-61
2024/04/16 02:56:36;;;;;;;0.90;0.50;;;14.70;73.70;;;;;;5497263;26;20039;-61
2024/04/16 02:59:02;;;;;;;1.50;0.30;;;14.60;73.80;;;;;;5497201;26;20002;-61
2024/04/16 03:01:27;;;;;;;2.47;0.50;;;14.50;73.80;;;;;;5497107;26;20005;-61
2024/04/16 03:03:56;;;;;;;0.82;0.40;;;14.50;73.80;;;;;;5498741;26;20097;-61
2024/04/16 03:06:22;;;;;;;1.10;0.40;;;14.40;73.90;;;;;;5500252;26;20005;-61
2024/04/16 03:08:50;;;;;;;2.03;0.52;;;14.40;74.00;;;;;;5500454;26;19998;-61
2024/04/16 03:11:16;;;;;;;1.60;0.47;;;14.40;74.10;;;;;;5500329;26;20461;-61
2024/04/16 03:13:41;;;;;;;1.65;0.50;;;14.30;74.10;;;;;;5500487;26;19998;-61
2024/04/16 03:16:07;;;;;;;1.02;0.40;;;14.30;74.30;;;;;;5502321;26;20063;-61
2024/04/16 03:18:33;;;;;;;1.33;0.50;;;14.20;74.30;;;;;;5500279;26;20339;-61
2024/04/16 03:21:00;;;;;;;1.83;0.70;;;14.10;74.20;;;;;;5500412;26;19996;-61
2024/04/16 03:23:26;;;;;;;3.50;0.63;;;14.10;74.40;;;;;;5500135;26;20005;-61
2024/04/16 03:25:51;;;;;;;2.05;0.80;;;14.00;74.50;;;;;;5500576;26;19998;-61
2024/04/16 03:28:17;;;;;;;2.53;0.60;;;14.00;74.50;;;;;;5499990;26;20394;-61
2024/04/16 03:30:42;;;;;;;0.90;0.50;;;13.90;74.50;;;;;;5499917;26;20040;-61
2024/04/16 03:33:09;;;;;;;1.10;0.43;;;13.90;74.60;;;;;;5502162;26;20022;-61
2024/04/16 03:35:34;;;;;;;2.28;0.55;;;13.90;74.70;;;;;;5500134;26;19994;-61
2024/04/16 03:38:00;;;;;;;1.15;0.57;;;13.80;74.70;;;;;;5500258;26;19998;-61
2024/04/16 03:40:25;;;;;;;1.25;0.60;;;13.80;74.80;;;;;;5501964;26;20057;-61
2024/04/16 03:42:51;;;;;;;0.77;0.57;;;13.70;74.90;;;;;;5500107;26;19998;-61
2024/04/16 03:45:17;;;;;;;4.53;0.90;;;13.70;75.00;;;;;;5502095;26;20143;-61
2024/04/16 03:47:42;;;;;;;1.42;0.65;;;13.70;75.00;;;;;;5501947;26;20009;-61
2024/04/16 03:50:08;;;;;;;0.40;0.30;;;13.70;75.00;;;;;;5500166;26;20000;-60
2024/04/16 03:52:34;;;;;;;0.88;0.40;;;13.60;75.00;;;;;;5501998;26;20005;-61
2024/04/16 03:54:59;;;;;;;1.65;0.60;;;13.60;75.00;;;;;;5499797;26;20314;-61
2024/04/16 03:57:25;;;;;;;1.52;0.47;;;13.60;75.10;;;;;;5469404;26;20086;-61
2024/04/16 04:02:34;;;;;;;1.08;0.55;;;13.60;75.10;;;;;;5500290;26;20037;-61
2024/04/16 04:05:00;;;;;;;3.38;0.57;;;13.50;75.10;;;;;;5499625;26;20006;-61
2024/04/16 04:07:26;;;;;;;2.10;0.70;;;13.60;75.20;;;;;;5501726;26;20005;-61
2024/04/16 04:09:52;;;;;;;1.73;0.52;;;13.60;75.20;;;;;;5499609;26;20005;-61
2024/04/16 04:12:17;;;;;;;0.82;0.60;;;13.50;75.20;;;;;;5501692;26;19994;-61
2024/04/16 04:14:43;;;;;;;0.90;0.43;;;13.50;75.30;;;;;;5499574;26;20005;-61
2024/04/16 04:17:09;;;;;;;2.13;0.30;;;13.50;75.40;;;;;;5498955;26;19990;-61
2024/04/16 04:19:34;;;;;;;1.80;0.55;;;13.40;75.30;;;;;;5501485;26;19998;-61
2024/04/16 04:22:00;;;;;;;0.55;0.30;;;13.40;75.40;;;;;;5499537;26;19994;-61
2024/04/16 04:24:25;;;;;;;1.85;0.47;;;13.40;75.50;;;;;;5499578;26;20002;-61
2024/04/16 04:26:51;;;;;;;1.77;0.50;;;13.30;75.60;;;;;;5499664;26;19998;-61
2024/04/16 04:29:17;;;;;;;0.82;0.25;;;13.30;75.60;;;;;;5499257;26;20405;-61
2024/04/16 04:31:42;;;;;;;9.50;0.65;;;13.30;75.60;;;;;;5499510;26;19998;-61
2024/04/16 04:34:08;;;;;;;0.80;0.50;;;13.30;75.60;;;;;;5499353;26;20002;-61
2024/04/16 04:36:33;;;;;;;2.50;0.88;;;13.30;75.70;;;;;;5499260;26;20430;-61
2024/04/16 04:38:59;;;;;;;5.03;0.77;;;13.30;75.80;;;;;;5501215;26;20008;-61
2024/04/16 04:41:25;;;;;;;2.13;0.60;;;13.20;75.90;;;;;;5501344;26;19998;-60
2024/04/16 04:43:51;;;;;;;2.38;0.85;;;13.20;75.90;;;;;;5498903;26;20439;-61
2024/04/16 04:46:17;;;;;;;4.00;0.63;;;13.20;76.00;;;;;;5468959;26;20285;-61
2024/04/16 04:48:43;;;;;;;5.82;1.10;;;13.20;76.10;;;;;;5468339;26;20078;-61
2024/04/16 04:51:09;;;;;;;6.70;1.60;;;13.10;76.20;;;;;;5500899;26;19997;-61
2024/04/16 04:53:35;;;;;;;6.57;1.83;;;13.10;76.30;;;;;;5499044;26;20435;-61
2024/04/16 04:56:01;;;;;;;10.30;2.15;;;13.10;76.40;;;;;;5499155;26;20002;-61
2024/04/16 04:58:27;;;;;;;8.20;2.40;;;13.10;76.60;;;;;;5500880;26;20009;-61
2024/04/16 05:00:52;;;;;;;13.85;2.17;;;13.00;76.70;;;;;;5500743;26;20005;-61
2024/04/16 05:03:18;;;;;;;10.63;2.92;;;13.00;76.80;;;;;;5498765;26;19994;-61
2024/04/16 05:05:45;;;;;;;13.38;2.55;;;13.00;77.00;;;;;;5500825;26;20005;-61
2024/04/16 05:08:11;;;;;;;15.40;2.75;;;13.00;77.10;;;;;;5500910;26;20008;-61
2024/04/16 05:10:37;;;;;;;18.27;3.10;;;13.00;77.90;;;;;;5498750;26;20309;-61
2024/04/16 05:13:02;;;;;;;17.45;2.70;;;13.00;77.30;;;;;;5500685;26;19990;-61
2024/04/16 05:15:28;;;;;;;17.55;3.58;;;12.90;77.40;;;;;;5500464;26;20039;-60
2024/04/16 05:17:54;;;;;;;16.80;3.45;;;12.90;77.60;;;;;;5498637;26;20370;-61
2024/04/16 05:20:19;;;;;;;13.32;3.42;;;12.90;77.70;;;;;;5500441;26;20137;-61
2024/04/16 05:22:45;;;;;;;15.93;2.47;;;12.80;77.70;;;;;;5498572;26;19998;-61
2024/04/16 05:25:11;;;;;;;16.05;2.97;;;12.80;77.80;;;;;;5500410;26;20120;-61
2024/04/16 05:27:37;;;;;;;12.18;2.50;;;12.80;77.90;;;;;;5498155;26;20133;-61
2024/04/16 05:30:04;;;;;;;22.00;4.65;;;12.70;77.90;;;;;;5499369;26;20123;-61
2024/04/16 05:32:29;;;;;;;34.30;4.57;;;12.70;78.00;;;;;;5498559;26;20009;-61
2024/04/16 05:34:55;;;;;;;70.53;8.02;;;12.70;78.40;;;;;;5500240;26;20321;-61
2024/04/16 05:37:21;;;;;;;15.25;3.05;;;12.60;78.60;;;;;;5498659;26;19994;-61
2024/04/16 05:39:46;;;;;;;18.08;3.20;;;12.60;78.60;;;;;;5498167;26;19998;-61
2024/04/16 05:42:12;;;;;;;19.42;3.60;;;12.60;78.70;;;;;;5498346;26;20005;-61
2024/04/16 05:44:38;;;;;;;28.15;5.03;;;12.60;78.80;;;;;;5498283;26;19995;-61
2024/04/16 05:47:04;;;;;;;35.70;5.22;;;12.60;78.80;;;;;;5498283;26;20010;-61
2024/04/16 05:49:30;;;;;;;25.38;4.40;;;12.60;78.80;;;;;;5500043;26;20005;-61
2024/04/16 05:51:57;;;;;;;24.35;4.15;;;12.50;79.00;;;;;;5498080;26;19998;-61
2024/04/16 05:54:24;;;;;;;21.08;3.85;;;12.50;79.20;;;;;;5500013;26;20002;-61
2024/04/16 05:56:50;;;;;;;26.02;4.00;;;12.50;79.20;;;;;;5500044;26;19994;-61
2024/04/16 05:59:15;;;;;;;30.65;4.78;;;12.40;79.10;;;;;;5497873;26;19994;-61
2024/04/16 06:01:41;;;;;;;33.92;4.82;;;12.50;79.20;;;;;;5496664;26;20001;-61
2024/04/16 06:04:07;;;;;;;22.45;4.85;;;12.40;79.30;;;;;;5496215;26;20498;-61
2024/04/16 06:06:32;;;;;;;23.42;4.20;;;12.40;79.40;;;;;;5496170;26;20022;-61
2024/04/16 06:08:58;;;;;;;19.98;4.68;;;12.40;79.50;;;;;;5486273;26;19998;-60
2024/04/16 06:11:23;;;;;;;36.33;4.70;;;12.40;79.50;;;;;;5453084;26;20011;-61
2024/04/16 06:13:49;;;;;;;13.63;3.90;;;12.40;79.50;;;;;;5423544;26;20103;-61
2024/04/16 06:16:15;;;;;;;21.52;3.97;;;12.40;79.50;;;;;;5450559;26;19999;-61
2024/04/16 06:18:42;;;;;;;19.33;3.50;;;12.40;79.50;;;;;;5456308;26;20429;-61
2024/04/16 06:21:08;;;;;;;20.00;3.85;;;12.40;79.60;;;;;;5456080;26;20018;-61
2024/04/16 06:23:34;;;;;;;33.17;5.57;;;12.40;79.60;;;;;;5455108;26;20006;-61
2024/04/16 06:26:06;;;;;;;34.13;5.97;;;12.40;79.60;;;;;;5457137;26;20013;-61
2024/04/16 06:28:32;;;;;;;27.13;4.85;;;12.40;79.60;;;;;;5455294;26;19999;-61
2024/04/16 06:30:57;;;;;;;18.73;4.13;;;12.40;79.50;;;;;;5454504;26;20014;-61
2024/04/16 06:33:23;;;;;;;19.95;3.85;;;12.40;79.50;;;;;;5456069;26;20896;-61
2024/04/16 06:35:49;;;;;;;21.98;5.10;;;12.40;79.50;;;;;;5459310;26;20002;-61
2024/04/16 06:38:15;;;;;;;29.17;4.30;;;12.40;79.50;;;;;;5460763;26;20479;-61
2024/04/16 06:40:40;;;;;;;23.00;3.95;;;12.50;79.60;;;;;;5460164;26;20030;-61
2024/04/16 06:43:06;;;;;;;41.40;6.05;;;12.50;79.60;;;;;;5423910;26;20003;-61
2024/04/16 06:45:32;;;;;;;39.20;5.80;;;12.50;79.60;;;;;;5430555;26;20322;-61
2024/04/16 06:47:57;;;;;;;29.30;4.90;;;12.50;79.90;;;;;;5462701;26;19990;-61
2024/04/16 06:50:23;;;;;;;25.15;4.47;;;12.50;79.70;;;;;;5460043;26;20409;-61
2024/04/16 06:52:49;;;;;;;27.50;4.13;;;12.50;79.50;;;;;;5460487;26;20005;-61
2024/04/16 06:55:14;;;;;;;23.85;3.95;;;12.50;79.40;;;;;;5447940;26;20079;-61
2024/04/16 06:57:40;;;;;;;27.55;3.22;;;12.50;79.30;;;;;;5420829;26;20337;-61
2024/04/16 07:00:06;;;;;;;20.50;3.05;;;12.60;79.30;;;;;;5420447;26;20076;-61
2024/04/16 07:02:32;;;;;;;18.40;3.63;;;12.50;79.10;;;;;;5420952;26;19992;-61
2024/04/16 07:04:57;;;;;;;41.67;5.47;;;12.50;79.10;;;;;;5420857;26;20049;-61
2024/04/16 07:07:23;;;;;;;35.58;5.18;;;12.60;79.10;;;;;;5450724;26;20125;-61
2024/04/16 07:09:49;;;;;;;28.70;4.20;;;12.60;79.30;;;;;;5442355;26;20010;-61
2024/04/16 07:12:14;;;;;;;52.13;5.60;;;12.60;79.10;;;;;;5453006;26;20075;-61
2024/04/16 07:14:40;;;;;;;52.90;5.95;;;12.60;79.10;;;;;;5424789;26;19996;-61
2024/04/16 07:17:05;;;;;;;93.32;9.32;;;12.60;79.10;;;;;;5453732;26;20000;-61
2024/04/16 07:19:31;;;;;;;101.13;10.73;;;12.60;79.10;;;;;;5443091;26;19999;-61
2024/04/16 07:21:57;;;;;;;203.77;19.48;;;12.60;79.00;;;;;;5452153;26;19996;-61
2024/04/16 07:24:22;;;;;;;93.25;9.85;;;12.60;79.00;;;;;;5433453;26;20016;-61
2024/04/16 07:26:48;;;;;;;73.72;10.30;;;12.50;78.80;;;;;;5459010;26;19995;-61
2024/04/16 07:29:14;;;;;;;67.25;8.88;;;12.50;78.80;;;;;;5458963;26;20006;-61
2024/04/16 07:31:39;;;;;;;73.03;9.73;;;12.50;78.80;;;;;;5429607;26;20002;-61
2024/04/16 07:34:05;;;;;;;68.20;9.35;;;12.50;78.70;;;;;;5429856;26;19991;-61
2024/04/16 07:36:32;;;;;;;68.50;8.27;;;12.50;78.60;;;;;;5457841;26;20010;-61
2024/04/16 07:38:58;;;;;;;47.35;7.18;;;12.60;78.50;;;;;;5459371;26;20009;-61
2024/04/16 07:41:24;;;;;;;59.90;8.35;;;12.50;78.30;;;;;;5397929;26;19998;-61
2024/04/16 07:43:50;;;;;;;60.60;7.70;;;12.60;78.20;;;;;;5440504;26;20012;-61
2024/04/16 07:46:16;;;;;;;48.53;7.70;;;12.60;78.20;;;;;;5395773;26;20315;-61
2024/04/16 07:48:41;;;;;;;83.57;9.85;;;12.60;78.10;;;;;;5423295;26;20014;-61
2024/04/16 07:51:07;;;;;;;58.75;8.52;;;12.60;78.10;;;;;;5429204;26;20414;-61
2024/04/16 07:53:32;;;;;;;72.45;8.15;;;12.60;78.00;;;;;;5464366;26;20019;-61
2024/04/16 07:55:58;;;;;;;67.35;8.48;;;12.60;78.00;;;;;;5400530;26;20002;-61
2024/04/16 07:58:24;;;;;;;73.32;8.65;;;12.60;77.80;;;;;;5422720;26;20007;-61
2024/04/16 08:00:50;;;;;;;49.92;8.27;;;12.70;77.70;;;;;;5466234;26;20026;-61
2024/04/16 08:03:15;;;;;;;45.95;7.78;;;12.60;77.30;;;;;;5459148;26;20080;-61
2024/04/16 08:05:41;;;;;;;44.83;6.82;;;12.60;77.20;;;;;;5464879;26;20323;-60
2024/04/16 08:08:07;;;;;;;55.15;7.18;;;12.60;77.00;;;;;;5431892;26;20410;-61
2024/04/16 08:10:32;;;;;;;49.90;6.45;;;12.60;77.10;;;;;;5427889;26;20053;-61
2024/04/16 08:12:58;;;;;;;39.28;6.22;;;12.50;76.90;;;;;;5462414;26;20030;-61
2024/04/16 08:15:24;;;;;;;50.03;6.85;;;12.50;76.90;;;;;;5458873;26;19999;-61
2024/04/16 08:17:50;;;;;;;57.70;7.75;;;12.60;76.90;;;;;;5447205;26;20007;-61
2024/04/16 08:20:15;;;;;;;56.65;7.57;;;12.60;76.80;;;;;;5422821;26;19995;-61
2024/04/16 08:22:41;;;;;;;47.22;6.68;;;12.60;76.50;;;;;;5425664;26;20103;-62
2024/04/16 08:25:07;;;;;;;57.63;7.22;;;12.60;76.30;;;;;;5433349;26;20003;-60
2024/04/16 08:27:32;;;;;;;55.53;7.15;;;12.60;76.20;;;;;;5452230;26;20487;-61
2024/04/16 08:29:58;;;;;;;54.03;6.47;;;12.60;76.20;;;;;;5462849;26;19991;-62
2024/04/16 08:32:24;;;;;;;63.38;7.68;;;12.60;76.10;;;;;;5463191;26;19998;-61
2024/04/16 08:34:49;;;;;;;51.13;6.75;;;12.70;76.10;;;;;;5460438;26;20006;-61
2024/04/16 08:37:15;;;;;;;60.72;7.20;;;12.70;75.90;;;;;;5484742;26;20036;-61
2024/04/16 08:39:40;;;;;;;54.05;7.75;;;12.70;75.80;;;;;;5458581;26;20310;-61
2024/04/16 08:42:09;;;;;;;68.25;8.48;;;12.70;75.70;;;;;;5455471;26;19995;-61
2024/04/16 08:44:35;;;;;;;86.88;9.45;;;12.70;75.50;;;;;;5454319;26;19999;-61
2024/04/16 08:47:01;;;;;;;85.63;9.77;;;12.80;75.50;;;;;;5429499;26;20013;-61
2024/04/16 08:49:29;;;;;;;70.95;8.73;;;12.80;75.40;;;;;;5454062;26;20131;-61
2024/04/16 08:51:55;;;;;;;54.65;7.55;;;12.80;75.00;;;;;;5457656;26;19999;-60
2024/04/16 08:54:21;;;;;;;64.70;9.52;;;12.80;75.00;;;;;;5401940;26;20013;-61
2024/04/16 08:56:48;;;;;;;63.45;8.02;;;12.80;74.70;;;;;;5452240;26;19999;-62
2024/04/16 08:59:14;;;;;;;69.45;8.68;;;12.90;74.30;;;;;;5462693;26;19995;-61
2024/04/16 09:01:40;;;;;;;68.97;7.88;;;12.90;74.30;;;;;;5454083;26;20418;-60
2024/04/16 09:04:06;;;;;;;64.60;8.00;;;12.90;74.20;;;;;;5453540;26;19995;-61
2024/04/16 09:06:32;;;;;;;44.67;6.72;;;12.80;73.90;;;;;;5461001;26;19995;-61
2024/04/16 09:09:00;;;;;;;47.65;6.78;;;12.80;74.00;;;;;;5396950;26;20002;-61
2024/04/16 09:11:26;;;;;;;49.70;7.97;;;12.80;73.70;;;;;;5456089;26;20001;-61
2024/04/16 09:13:52;;;;;;;42.58;6.45;;;12.80;73.60;;;;;;5443550;26;20003;-62
2024/04/16 09:16:19;;;;;;;38.75;6.03;;;12.80;73.30;;;;;;5460346;26;19995;-61
2024/04/16 09:18:46;;;;;;;45.80;6.25;;;12.80;73.10;;;;;;5408758;26;19999;-60
2024/04/16 09:21:11;;;;;;;44.13;6.85;;;12.80;72.50;;;;;;5453243;26;20019;-61
2024/04/16 09:23:37;;;;;;;41.03;6.28;;;12.90;72.70;;;;;;5491818;26;20298;-61
2024/04/16 09:26:11;;;;;;;30.92;4.90;;;12.80;72.20;;;;;;5397692;26;19999;-61
2024/04/16 09:28:36;;;;;;;28.20;4.18;;;12.90;72.60;;;;;;5470640;26;19999;-61
2024/04/16 09:31:02;;;;;;;32.83;5.43;;;12.80;71.90;;;;;;5419804;26;20026;-61
2024/04/16 09:33:30;;;;;;;36.40;4.90;;;12.90;71.40;;;;;;5448121;26;19999;-61
2024/04/16 09:35:56;;;;;;;34.30;4.43;;;12.90;71.50;;;;;;5454448;26;20000;-61
2024/04/16 09:38:21;;;;;;;34.53;4.65;;;12.90;71.70;;;;;;5410736;26;20014;-61
2024/04/16 09:40:47;;;;;;;28.60;5.25;;;12.90;71.80;;;;;;5455033;26;20023;-61
2024/04/16 09:43:13;;;;;;;33.47;4.07;;;12.90;71.60;;;;;;5454082;26;20010;-61
2024/04/16 09:45:38;;;;;;;30.52;3.60;;;13.00;71.50;;;;;;5454234;26;20003;-61
2024/04/16 09:48:04;;;;;;;46.05;4.60;;;13.00;71.30;;;;;;5454284;26;19991;-61
2024/04/16 09:50:30;;;;;;;30.05;4.70;;;13.00;71.10;;;;;;5454995;26;20401;-61
2024/04/16 09:52:56;;;;;;;23.00;4.20;;;13.10;70.90;;;;;;5465681;26;20011;-61
2024/04/16 09:55:22;;;;;;;27.38;5.40;;;13.10;70.40;;;;;;5458757;26;20079;-61
2024/04/16 09:57:48;;;;;;;23.50;4.05;;;13.10;70.40;;;;;;5468668;26;19999;-61
2024/04/16 10:00:15;;;;;;;18.60;3.38;;;13.10;70.40;;;;;;5457096;26;19994;-60
2024/04/16 10:02:42;;;;;;;24.67;3.20;;;13.10;69.90;;;;;;5460835;26;19998;-61
2024/04/16 10:05:10;;;;;;;46.72;6.95;;;13.10;70.10;;;;;;5465829;26;19995;-61
2024/04/16 10:07:36;;;;;;;34.53;5.18;;;13.20;70.10;;;;;;5429963;26;19995;-61
2024/04/16 10:10:02;;;;;;;42.85;5.55;;;13.20;70.00;;;;;;5450277;26;20099;-61
2024/04/16 10:12:27;;;;;;;29.80;5.10;;;13.20;70.00;;;;;;5459796;26;20011;-61
2024/04/16 10:14:53;;;;;;;44.08;5.15;;;13.20;69.80;;;;;;5459603;26;19995;-61
2024/04/16 10:17:19;;;;;;;51.75;5.53;;;13.30;69.80;;;;;;5422685;26;20003;-61
2024/04/16 10:19:44;;;;;;;41.30;5.50;;;13.20;69.60;;;;;;5457926;26;20136;-61
2024/04/16 10:22:13;;;;;;;55.40;6.00;;;13.30;69.70;;;;;;5426859;26;20007;-61
2024/04/16 10:24:39;;;;;;;39.00;4.60;;;13.40;69.40;;;;;;5454565;26;19998;-61
2024/04/16 10:27:08;;;;;;;64.38;6.28;;;13.40;69.50;;;;;;5489782;26;20014;-62
2024/04/16 10:29:36;;;;;;;52.00;6.93;;;13.50;68.90;;;;;;5446658;26;19999;-61
2024/04/16 10:32:02;;;;;;;39.65;4.60;;;13.50;68.60;;;;;;5447253;26;20124;-61
2024/04/16 10:34:28;;;;;;;46.90;5.68;;;13.50;68.60;;;;;;5460681;26;19991;-61
2024/04/16 10:36:55;;;;;;;73.72;8.55;;;13.50;68.60;;;;;;5432402;26;20003;-61
2024/04/16 10:39:33;;;;;;;57.95;8.05;;;13.50;68.50;;;;;;5423564;26;20023;-61
2024/04/16 10:42:01;;;;;;;66.88;7.82;;;13.50;68.30;;;;;;5453929;26;19999;-61
2024/04/16 10:44:27;;;;;;;27.40;3.67;;;13.50;68.60;;;;;;5458993;26;20011;-61
2024/04/16 10:46:53;;;;;;;33.13;5.07;;;13.60;68.60;;;;;;5454858;26;20007;-61
2024/04/16 10:49:22;;;;;;;49.22;5.65;;;13.60;68.30;;;;;;5456416;26;19999;-61
2024/04/16 10:51:51;;;;;;;86.47;9.73;;;13.60;68.30;;;;;;5428650;26;19998;-61
2024/04/16 10:54:17;;;;;;;58.72;6.88;;;13.60;68.50;;;;;;5460139;26;20035;-61
2024/04/16 10:56:43;;;;;;;53.47;5.90;;;13.60;68.00;;;;;;5429031;26;19999;-61
2024/04/16 10:59:09;;;;;;;55.88;7.35;;;13.70;68.10;;;;;;5460265;26;20014;-61
2024/04/16 11:01:39;;;;;;;44.17;5.35;;;13.70;67.90;;;;;;5426089;26;19999;-61
2024/04/16 11:04:10;;;;;;;56.22;8.10;;;13.70;68.00;;;;;;5447820;26;20008;-61
2024/04/16 11:06:36;;;;;;;40.15;5.00;;;13.70;67.80;;;;;;5473909;26;19999;-61
2024/04/16 11:09:03;;;;;;;53.80;7.63;;;13.70;67.80;;;;;;5420942;26;20014;-61
2024/04/16 11:11:29;;;;;;;35.60;4.45;;;13.80;67.70;;;;;;5451573;26;20536;-62
2024/04/16 11:13:55;;;;;;;46.78;6.75;;;13.80;67.60;;;;;;5450690;26;20015;-61
2024/04/16 11:16:21;;;;;;;60.88;8.30;;;13.80;67.60;;;;;;5423393;26;19995;-61
2024/04/16 11:18:47;;;;;;;62.92;7.53;;;13.80;67.10;;;;;;5450437;26;20323;-61
2024/04/16 11:21:13;;;;;;;71.43;7.75;;;13.80;66.70;;;;;;5452358;26;20072;-61
2024/04/16 11:23:39;;;;;;;68.78;8.07;;;13.90;66.80;;;;;;5490049;26;19999;-61
2024/04/16 11:26:04;;;;;;;52.15;6.45;;;13.90;66.60;;;;;;5463813;26;19995;-61
2024/04/16 11:28:30;;;;;;;43.88;8.18;;;13.90;66.40;;;;;;5432676;26;20061;-61
2024/04/16 11:30:56;;;;;;;57.72;8.63;;;13.90;66.50;;;;;;5454940;26;19995;-61
2024/04/16 11:33:23;;;;;;;81.38;8.90;;;14.00;66.10;;;;;;5487398;26;20012;-62
2024/04/16 11:35:49;;;;;;;51.13;7.05;;;14.00;66.20;;;;;;5455820;26;20393;-61
2024/04/16 11:38:19;;;;;;;46.35;5.45;;;14.00;65.90;;;;;;5458859;26;20013;-61
2024/04/16 11:40:45;;;;;;;54.92;7.13;;;14.10;65.80;;;;;;5449699;26;20137;-61
2024/04/16 11:43:12;;;;;;;54.50;5.93;;;14.10;65.50;;;;;;5460794;26;19995;-61
2024/04/16 11:45:38;;;;;;;38.90;6.72;;;14.10;65.40;;;;;;5458410;26;20003;-61
2024/04/16 11:48:04;;;;;;;52.00;7.03;;;14.10;66.60;;;;;;5457616;26;20078;-61
2024/04/16 11:50:30;;;;;;;41.38;6.60;;;14.10;65.70;;;;;;5446090;26;20003;-61
2024/04/16 11:52:55;;;;;;;32.97;5.30;;;14.10;66.30;;;;;;5459448;26;20010;-61
2024/04/16 11:55:21;;;;;;;51.90;6.20;;;14.10;66.20;;;;;;5481831;26;20093;-61
2024/04/16 11:57:47;;;;;;;69.15;7.45;;;14.10;65.70;;;;;;5460895;26;20002;-60
2024/04/16 12:00:12;;;;;;;41.50;6.07;;;14.20;65.80;;;;;;5478866;26;20002;-60
2024/04/16 12:02:38;;;;;;;36.38;5.43;;;14.10;65.20;;;;;;5443961;26;20414;-60
2024/04/16 12:05:04;;;;;;;32.67;4.85;;;14.20;65.30;;;;;;5463545;26;19990;-60
2024/04/16 12:07:29;;;;;;;35.50;4.97;;;14.20;65.40;;;;;;5464719;26;20475;-60
2024/04/16 12:09:55;;;;;;;23.80;4.25;;;14.20;65.30;;;;;;5451720;26;19999;-60
2024/04/16 12:12:20;;;;;;;46.38;6.75;;;14.20;65.40;;;;;;5426502;26;19999;-60
2024/04/16 12:14:46;;;;;;;35.78;4.55;;;14.30;65.10;;;;;;5452985;26;20003;-60
2024/04/16 12:17:12;;;;;;;62.85;7.63;;;14.30;65.00;;;;;;5439936;26;20133;-59
2024/04/16 12:19:38;;;;;;;73.75;8.30;;;14.30;65.20;;;;;;5456509;26;20023;-59
2024/04/16 12:22:04;;;;;;;67.47;7.32;;;14.30;65.00;;;;;;5425980;26;20016;-60
2024/04/16 12:24:29;;;;;;;60.20;7.90;;;14.30;65.00;;;;;;5451873;26;20002;-59
2024/04/16 12:26:55;;;;;;;54.15;7.95;;;14.30;65.00;;;;;;5460365;26;20144;-59
2024/04/16 12:29:21;;;;;;;52.53;5.82;;;14.30;64.90;;;;;;5452938;26;20007;-60
2024/04/16 12:31:46;;;;;;;61.83;7.75;;;14.30;64.80;;;;;;5450317;26;21231;-59
2024/04/16 12:34:12;;;;;;;42.45;6.22;;;14.30;64.70;;;;;;5460907;26;20006;-59
2024/04/16 12:36:38;;;;;;;41.08;6.28;;;14.40;64.50;;;;;;5480155;26;19998;-59